sensor_id;sensor_type;location;lat;lon;timestamp;temperature;humidity
8338;DHT22;4206;48.634;9.516;2022-07-23T00:01:31;21.90;99.90
8338;DHT22;4206;48.634;9.516;2022-07-23T00:03:56;21.80;99.90
8338;DHT22;4206;48.634;9.516;2022-07-23T00:06:23;21.70;99.90
8338;DHT22;4206;48.634;9.516;2022-07-23T00:08:49;21.60;99.90
8338;DHT22;4206;48.634;9.516;2022-07-23T00:11:15;21.60;99.90
8338;DHT22;4206;48.634;9.516;2022-07-23T00:13:41;21.50;99.90
8338;DHT22;4206;48.634;9.516;2022-07-23T00:16:07;21.50;99.90
8338;DHT22;4206;48.634;9.516;2022-07-23T00:18:33;21.50;99.90
8338;DHT22;4206;48.634;9.516;2022-07-23T00:20:59;21.60;99.90
8338;DHT22;4206;48.634;9.516;2022-07-23T00:23:25;21.60;99.90
8338;DHT22;4206;48.634;9.516;2022-07-23T00:25:52;21.70;99.90
8338;DHT22;4206;48.634;9.516;2022-07-23T00:28:18;21.70;99.90
8338;DHT22;4206;48.634;9.516;2022-07-23T00:30:44;21.70;99.90
8338;DHT22;4206;48.634;9.516;2022-07-23T00:33:10;21.70;99.90
8338;DHT22;4206;48.634;9.516;2022-07-23T00:35:38;21.60;99.90
8338;DHT22;4206;48.634;9.516;2022-07-23T00:38:07;21.60;99.90
8338;DHT22;4206;48.634;9.516;2022-07-23T00:40:33;21.60;99.90
8338;DHT22;4206;48.634;9.516;2022-07-23T00:42:59;21.50;99.90
8338;DHT22;4206;48.634;9.516;2022-07-23T00:45:25;21.50;99.90
8338;DHT22;4206;48.634;9.516;2022-07-23T00:47:51;21.50;99.90
8338;DHT22;4206;48.634;9.516;2022-07-23T00:50:17;21.50;99.90
8338;DHT22;4206;48.634;9.516;2022-07-23T00:52:43;21.50;99.90
8338;DHT22;4206;48.634;9.516;2022-07-23T00:55:10;21.50;99.90
8338;DHT22;4206;48.634;9.516;2022-07-23T00:57:37;21.50;99.90
8338;DHT22;4206;48.634;9.516;2022-07-23T01:00:05;21.40;99.90
8338;DHT22;4206;48.634;9.516;2022-07-23T01:02:31;21.40;99.90
8338;DHT22;4206;48.634;9.516;2022-07-23T01:04:57;21.40;99.90
8338;DHT22;4206;48.634;9.516;2022-07-23T01:07:23;21.50;99.90
8338;DHT22;4206;48.634;9.516;2022-07-23T01:09:51;21.50;99.90
8338;DHT22;4206;48.634;9.516;2022-07-23T01:12:17;21.50;99.90
8338;DHT22;4206;48.634;9.516;2022-07-23T01:14:43;21.40;99.90
8338;DHT22;4206;48.634;9.516;2022-07-23T01:17:08;21.40;99.90
8338;DHT22;4206;48.634;9.516;2022-07-23T01:19:34;21.40;99.90
8338;DHT22;4206;48.634;9.516;2022-07-23T01:22:02;21.40;99.90
8338;DHT22;4206;48.634;9.516;2022-07-23T01:24:28;21.50;99.90
8338;DHT22;4206;48.634;9.516;2022-07-23T01:26:54;21.50;99.90
8338;DHT22;4206;48.634;9.516;2022-07-23T01:29:22;21.50;99.90
8338;DHT22;4206;48.634;9.516;2022-07-23T01:31:51;21.50;99.90
8338;DHT22;4206;48.634;9.516;2022-07-23T01:34:16;21.40;99.90
8338;DHT22;4206;48.634;9.516;2022-07-23T01:36:42;21.40;99.90
8338;DHT22;4206;48.634;9.516;2022-07-23T01:39:08;21.40;99.90
8338;DHT22;4206;48.634;9.516;2022-07-23T01:41:34;21.40;99.90
8338;DHT22;4206;48.634;9.516;2022-07-23T01:44:00;21.30;99.90
8338;DHT22;4206;48.634;9.516;2022-07-23T01:46:26;21.20;99.90
8338;DHT22;4206;48.634;9.516;2022-07-23T01:48:51;21.00;99.90
8338;DHT22;4206;48.634;9.516;2022-07-23T01:51:17;21.00;99.90
8338;DHT22;4206;48.634;9.516;2022-07-23T01:53:43;20.90;99.90
8338;DHT22;4206;48.634;9.516;2022-07-23T01:56:09;21.00;99.90
8338;DHT22;4206;48.634;9.516;2022-07-23T01:58:34;21.00;99.90
8338;DHT22;4206;48.634;9.516;2022-07-23T02:01:00;20.90;99.90
8338;DHT22;4206;48.634;9.516;2022-07-23T02:03:26;20.90;99.90
8338;DHT22;4206;48.634;9.516;2022-07-23T02:05:52;20.80;99.90
8338;DHT22;4206;48.634;9.516;2022-07-23T02:08:18;20.70;99.90
8338;DHT22;4206;48.634;9.516;2022-07-23T02:10:44;20.70;99.90
8338;DHT22;4206;48.634;9.516;2022-07-23T02:13:11;20.70;99.90
8338;DHT22;4206;48.634;9.516;2022-07-23T02:15:36;20.60;99.90
8338;DHT22;4206;48.634;9.516;2022-07-23T02:18:02;20.50;99.90
8338;DHT22;4206;48.634;9.516;2022-07-23T02:20:28;20.50;99.90
8338;DHT22;4206;48.634;9.516;2022-07-23T02:22:54;20.40;99.90
8338;DHT22;4206;48.634;9.516;2022-07-23T02:25:20;20.40;99.90
8338;DHT22;4206;48.634;9.516;2022-07-23T02:27:45;20.30;99.90
8338;DHT22;4206;48.634;9.516;2022-07-23T02:30:11;20.30;99.90
8338;DHT22;4206;48.634;9.516;2022-07-23T02:32:37;20.30;99.90
8338;DHT22;4206;48.634;9.516;2022-07-23T02:35:05;20.40;99.90
8338;DHT22;4206;48.634;9.516;2022-07-23T02:37:32;20.30;99.90
8338;DHT22;4206;48.634;9.516;2022-07-23T02:39:58;20.30;99.90
8338;DHT22;4206;48.634;9.516;2022-07-23T02:42:23;20.30;99.90
8338;DHT22;4206;48.634;9.516;2022-07-23T02:44:50;20.30;99.90
8338;DHT22;4206;48.634;9.516;2022-07-23T02:47:16;20.40;99.90
8338;DHT22;4206;48.634;9.516;2022-07-23T02:49:42;20.40;99.90
8338;DHT22;4206;48.634;9.516;2022-07-23T02:52:07;20.40;99.90
8338;DHT22;4206;48.634;9.516;2022-07-23T02:54:36;20.40;99.90
8338;DHT22;4206;48.634;9.516;2022-07-23T02:57:01;20.40;99.90
8338;DHT22;4206;48.634;9.516;2022-07-23T02:59:27;20.40;99.90
8338;DHT22;4206;48.634;9.516;2022-07-23T03:01:53;20.50;99.90
8338;DHT22;4206;48.634;9.516;2022-07-23T03:04:18;20.40;99.90
8338;DHT22;4206;48.634;9.516;2022-07-23T03:06:44;20.30;99.90
8338;DHT22;4206;48.634;9.516;2022-07-23T03:09:10;20.30;99.90
8338;DHT22;4206;48.634;9.516;2022-07-23T03:11:36;20.20;99.90
8338;DHT22;4206;48.634;9.516;2022-07-23T03:14:01;20.20;99.90
8338;DHT22;4206;48.634;9.516;2022-07-23T03:16:27;20.20;99.90
8338;DHT22;4206;48.634;9.516;2022-07-23T03:18:52;20.20;99.90
8338;DHT22;4206;48.634;9.516;2022-07-23T03:21:18;20.10;99.90
8338;DHT22;4206;48.634;9.516;2022-07-23T03:23:44;20.00;99.90
8338;DHT22;4206;48.634;9.516;2022-07-23T03:26:10;20.00;99.90
8338;DHT22;4206;48.634;9.516;2022-07-23T03:28:35;19.80;99.90
8338;DHT22;4206;48.634;9.516;2022-07-23T03:31:01;19.80;99.90
8338;DHT22;4206;48.634;9.516;2022-07-23T03:33:27;19.80;99.90
8338;DHT22;4206;48.634;9.516;2022-07-23T03:35:53;19.80;99.90
8338;DHT22;4206;48.634;9.516;2022-07-23T03:38:18;19.80;99.90
8338;DHT22;4206;48.634;9.516;2022-07-23T03:40:44;19.80;99.90
8338;DHT22;4206;48.634;9.516;2022-07-23T03:43:10;19.80;99.90
8338;DHT22;4206;48.634;9.516;2022-07-23T03:45:36;19.80;99.90
8338;DHT22;4206;48.634;9.516;2022-07-23T03:48:01;19.80;99.90
8338;DHT22;4206;48.634;9.516;2022-07-23T03:50:27;19.80;99.90
8338;DHT22;4206;48.634;9.516;2022-07-23T03:52:53;19.70;99.90
8338;DHT22;4206;48.634;9.516;2022-07-23T03:55:19;19.70;99.90
8338;DHT22;4206;48.634;9.516;2022-07-23T03:57:45;19.60;99.90
8338;DHT22;4206;48.634;9.516;2022-07-23T04:00:12;19.60;99.90
8338;DHT22;4206;48.634;9.516;2022-07-23T04:02:39;19.60;99.90
8338;DHT22;4206;48.634;9.516;2022-07-23T04:05:05;19.60;99.90
8338;DHT22;4206;48.634;9.516;2022-07-23T04:07:31;19.50;99.90
8338;DHT22;4206;48.634;9.516;2022-07-23T04:09:57;19.50;99.90
8338;DHT22;4206;48.634;9.516;2022-07-23T04:12:23;19.50;99.90
8338;DHT22;4206;48.634;9.516;2022-07-23T04:14:49;19.60;99.90
8338;DHT22;4206;48.634;9.516;2022-07-23T04:17:14;19.50;99.90
8338;DHT22;4206;48.634;9.516;2022-07-23T04:19:40;19.40;99.90
8338;DHT22;4206;48.634;9.516;2022-07-23T04:22:08;19.40;99.90
8338;DHT22;4206;48.634;9.516;2022-07-23T04:24:34;19.30;99.90
8338;DHT22;4206;48.634;9.516;2022-07-23T04:27:00;19.30;99.90
8338;DHT22;4206;48.634;9.516;2022-07-23T04:29:26;19.30;99.90
8338;DHT22;4206;48.634;9.516;2022-07-23T04:31:51;19.30;99.90
8338;DHT22;4206;48.634;9.516;2022-07-23T04:34:17;19.30;99.90
8338;DHT22;4206;48.634;9.516;2022-07-23T04:36:43;19.40;99.90
8338;DHT22;4206;48.634;9.516;2022-07-23T04:39:09;19.40;99.90
8338;DHT22;4206;48.634;9.516;2022-07-23T04:41:34;19.40;99.90
8338;DHT22;4206;48.634;9.516;2022-07-23T04:44:01;19.40;99.90
8338;DHT22;4206;48.634;9.516;2022-07-23T04:46:26;19.40;99.90
8338;DHT22;4206;48.634;9.516;2022-07-23T04:48:53;19.50;99.90
8338;DHT22;4206;48.634;9.516;2022-07-23T04:51:19;19.60;99.90
8338;DHT22;4206;48.634;9.516;2022-07-23T04:53:45;19.70;99.90
8338;DHT22;4206;48.634;9.516;2022-07-23T04:56:10;19.70;99.90
8338;DHT22;4206;48.634;9.516;2022-07-23T04:58:36;19.80;99.90
8338;DHT22;4206;48.634;9.516;2022-07-23T05:01:02;19.80;99.90
8338;DHT22;4206;48.634;9.516;2022-07-23T05:03:28;19.90;99.90
8338;DHT22;4206;48.634;9.516;2022-07-23T05:05:54;20.00;99.90
8338;DHT22;4206;48.634;9.516;2022-07-23T05:08:20;20.10;99.90
8338;DHT22;4206;48.634;9.516;2022-07-23T05:10:45;20.20;99.90
8338;DHT22;4206;48.634;9.516;2022-07-23T05:13:11;20.20;99.90
8338;DHT22;4206;48.634;9.516;2022-07-23T05:15:37;20.30;99.90
8338;DHT22;4206;48.634;9.516;2022-07-23T05:18:03;20.50;99.90
8338;DHT22;4206;48.634;9.516;2022-07-23T05:20:29;20.70;99.90
8338;DHT22;4206;48.634;9.516;2022-07-23T05:22:55;20.80;99.90
8338;DHT22;4206;48.634;9.516;2022-07-23T05:25:20;21.00;99.90
8338;DHT22;4206;48.634;9.516;2022-07-23T05:27:46;21.10;99.90
8338;DHT22;4206;48.634;9.516;2022-07-23T05:30:12;21.30;99.90
8338;DHT22;4206;48.634;9.516;2022-07-23T05:32:38;21.30;99.90
8338;DHT22;4206;48.634;9.516;2022-07-23T05:35:05;21.40;99.90
8338;DHT22;4206;48.634;9.516;2022-07-23T05:37:31;21.40;99.90
8338;DHT22;4206;48.634;9.516;2022-07-23T05:40:01;21.40;99.90
8338;DHT22;4206;48.634;9.516;2022-07-23T05:42:27;21.30;99.90
8338;DHT22;4206;48.634;9.516;2022-07-23T05:44:53;21.30;99.90
8338;DHT22;4206;48.634;9.516;2022-07-23T05:47:18;21.30;99.90
8338;DHT22;4206;48.634;9.516;2022-07-23T05:49:44;21.40;99.90
8338;DHT22;4206;48.634;9.516;2022-07-23T05:52:09;21.50;99.90
8338;DHT22;4206;48.634;9.516;2022-07-23T05:54:35;21.50;99.90
8338;DHT22;4206;48.634;9.516;2022-07-23T05:57:02;21.60;99.90
8338;DHT22;4206;48.634;9.516;2022-07-23T05:59:27;21.70;99.90
8338;DHT22;4206;48.634;9.516;2022-07-23T06:01:53;21.90;99.90
8338;DHT22;4206;48.634;9.516;2022-07-23T06:04:19;22.10;99.90
8338;DHT22;4206;48.634;9.516;2022-07-23T06:06:44;22.10;99.90
8338;DHT22;4206;48.634;9.516;2022-07-23T06:09:10;22.30;99.90
8338;DHT22;4206;48.634;9.516;2022-07-23T06:11:39;22.30;99.90
8338;DHT22;4206;48.634;9.516;2022-07-23T06:14:05;22.40;99.90
8338;DHT22;4206;48.634;9.516;2022-07-23T06:16:31;22.50;99.90
8338;DHT22;4206;48.634;9.516;2022-07-23T06:18:56;22.60;99.90
8338;DHT22;4206;48.634;9.516;2022-07-23T06:21:22;22.80;99.90
8338;DHT22;4206;48.634;9.516;2022-07-23T06:23:48;22.90;99.90
8338;DHT22;4206;48.634;9.516;2022-07-23T06:26:13;23.10;99.90
8338;DHT22;4206;48.634;9.516;2022-07-23T06:28:39;23.30;99.90
8338;DHT22;4206;48.634;9.516;2022-07-23T06:31:04;23.50;99.90
8338;DHT22;4206;48.634;9.516;2022-07-23T06:33:30;23.70;99.90
8338;DHT22;4206;48.634;9.516;2022-07-23T06:35:56;24.00;99.90
8338;DHT22;4206;48.634;9.516;2022-07-23T06:38:21;24.40;99.90
8338;DHT22;4206;48.634;9.516;2022-07-23T06:40:47;24.70;99.90
8338;DHT22;4206;48.634;9.516;2022-07-23T06:43:13;24.70;99.90
8338;DHT22;4206;48.634;9.516;2022-07-23T06:45:38;24.80;99.90
8338;DHT22;4206;48.634;9.516;2022-07-23T06:48:04;24.80;99.90
8338;DHT22;4206;48.634;9.516;2022-07-23T06:50:30;24.90;99.90
8338;DHT22;4206;48.634;9.516;2022-07-23T06:52:56;25.20;99.90
8338;DHT22;4206;48.634;9.516;2022-07-23T06:55:22;25.30;99.90
8338;DHT22;4206;48.634;9.516;2022-07-23T06:57:47;25.30;99.90
8338;DHT22;4206;48.634;9.516;2022-07-23T07:00:13;25.50;99.90
8338;DHT22;4206;48.634;9.516;2022-07-23T07:02:39;25.60;99.90
8338;DHT22;4206;48.634;9.516;2022-07-23T07:05:05;25.60;99.90
8338;DHT22;4206;48.634;9.516;2022-07-23T07:07:30;25.70;99.90
8338;DHT22;4206;48.634;9.516;2022-07-23T07:09:56;26.00;99.90
8338;DHT22;4206;48.634;9.516;2022-07-23T07:12:22;26.10;99.90
8338;DHT22;4206;48.634;9.516;2022-07-23T07:14:47;25.60;99.90
8338;DHT22;4206;48.634;9.516;2022-07-23T07:17:13;25.20;99.90
8338;DHT22;4206;48.634;9.516;2022-07-23T07:19:41;25.10;99.90
8338;DHT22;4206;48.634;9.516;2022-07-23T07:22:06;25.20;99.90
8338;DHT22;4206;48.634;9.516;2022-07-23T07:24:32;25.50;99.90
8338;DHT22;4206;48.634;9.516;2022-07-23T07:26:58;25.60;99.90
8338;DHT22;4206;48.634;9.516;2022-07-23T07:29:23;25.80;99.90
8338;DHT22;4206;48.634;9.516;2022-07-23T07:31:49;26.00;99.90
8338;DHT22;4206;48.634;9.516;2022-07-23T07:34:15;26.30;99.90
8338;DHT22;4206;48.634;9.516;2022-07-23T07:36:40;26.30;99.90
8338;DHT22;4206;48.634;9.516;2022-07-23T07:39:06;26.60;99.90
8338;DHT22;4206;48.634;9.516;2022-07-23T07:41:32;26.40;99.90
8338;DHT22;4206;48.634;9.516;2022-07-23T07:43:57;26.50;99.90
8338;DHT22;4206;48.634;9.516;2022-07-23T07:46:23;26.40;99.90
8338;DHT22;4206;48.634;9.516;2022-07-23T07:48:50;26.50;99.90
8338;DHT22;4206;48.634;9.516;2022-07-23T07:51:16;27.00;99.90
8338;DHT22;4206;48.634;9.516;2022-07-23T07:53:41;27.20;99.90
8338;DHT22;4206;48.634;9.516;2022-07-23T07:56:07;27.40;99.90
8338;DHT22;4206;48.634;9.516;2022-07-23T07:58:33;27.60;99.90
8338;DHT22;4206;48.634;9.516;2022-07-23T08:00:59;27.80;99.90
8338;DHT22;4206;48.634;9.516;2022-07-23T08:03:26;27.70;99.90
8338;DHT22;4206;48.634;9.516;2022-07-23T08:05:51;27.50;99.90
8338;DHT22;4206;48.634;9.516;2022-07-23T08:08:17;27.40;99.90
8338;DHT22;4206;48.634;9.516;2022-07-23T08:10:43;27.40;99.90
8338;DHT22;4206;48.634;9.516;2022-07-23T08:13:13;27.50;99.90
8338;DHT22;4206;48.634;9.516;2022-07-23T08:15:40;27.70;99.90
8338;DHT22;4206;48.634;9.516;2022-07-23T08:18:06;28.00;99.90
8338;DHT22;4206;48.634;9.516;2022-07-23T08:20:32;28.10;99.90
8338;DHT22;4206;48.634;9.516;2022-07-23T08:23:02;28.20;99.90
8338;DHT22;4206;48.634;9.516;2022-07-23T08:25:32;28.20;99.90
8338;DHT22;4206;48.634;9.516;2022-07-23T08:27:59;28.10;99.90
8338;DHT22;4206;48.634;9.516;2022-07-23T08:30:26;27.90;99.90
8338;DHT22;4206;48.634;9.516;2022-07-23T08:35:23;28.60;99.90
8338;DHT22;4206;48.634;9.516;2022-07-23T08:37:49;28.90;99.90
8338;DHT22;4206;48.634;9.516;2022-07-23T08:40:14;29.60;99.90
8338;DHT22;4206;48.634;9.516;2022-07-23T08:42:40;29.90;99.90
8338;DHT22;4206;48.634;9.516;2022-07-23T08:45:08;30.80;99.90
8338;DHT22;4206;48.634;9.516;2022-07-23T08:47:37;31.80;99.90
8338;DHT22;4206;48.634;9.516;2022-07-23T08:50:03;32.00;99.90
8338;DHT22;4206;48.634;9.516;2022-07-23T08:52:30;32.30;99.90
8338;DHT22;4206;48.634;9.516;2022-07-23T08:55:00;32.80;99.90
8338;DHT22;4206;48.634;9.516;2022-07-23T08:57:25;33.10;99.90
8338;DHT22;4206;48.634;9.516;2022-07-23T08:59:51;33.50;99.90
8338;DHT22;4206;48.634;9.516;2022-07-23T09:02:17;33.50;99.90
8338;DHT22;4206;48.634;9.516;2022-07-23T09:04:43;32.90;99.90
8338;DHT22;4206;48.634;9.516;2022-07-23T09:07:09;33.30;99.90
8338;DHT22;4206;48.634;9.516;2022-07-23T09:09:34;33.80;99.20
8338;DHT22;4206;48.634;9.516;2022-07-23T09:12:06;34.10;98.40
8338;DHT22;4206;48.634;9.516;2022-07-23T09:17:18;33.00;97.10
8338;DHT22;4206;48.634;9.516;2022-07-23T09:19:45;32.40;97.30
8338;DHT22;4206;48.634;9.516;2022-07-23T09:22:19;32.50;99.10
8338;DHT22;4206;48.634;9.516;2022-07-23T09:25:02;32.00;98.60
8338;DHT22;4206;48.634;9.516;2022-07-23T09:27:48;31.90;98.80
8338;DHT22;4206;48.634;9.516;2022-07-23T09:30:14;32.00;96.90
8338;DHT22;4206;48.634;9.516;2022-07-23T09:32:40;32.20;99.10
8338;DHT22;4206;48.634;9.516;2022-07-23T09:35:06;32.00;98.70
8338;DHT22;4206;48.634;9.516;2022-07-23T09:37:33;32.40;97.60
8338;DHT22;4206;48.634;9.516;2022-07-23T09:40:09;33.10;97.00
8338;DHT22;4206;48.634;9.516;2022-07-23T09:42:35;34.50;95.80
8338;DHT22;4206;48.634;9.516;2022-07-23T09:45:01;34.10;95.60
8338;DHT22;4206;48.634;9.516;2022-07-23T09:47:30;33.60;95.60
8338;DHT22;4206;48.634;9.516;2022-07-23T09:50:01;33.40;95.90
8338;DHT22;4206;48.634;9.516;2022-07-23T09:52:32;33.40;96.20
8338;DHT22;4206;48.634;9.516;2022-07-23T09:55:01;34.60;95.00
8338;DHT22;4206;48.634;9.516;2022-07-23T09:57:27;34.20;95.00
8338;DHT22;4206;48.634;9.516;2022-07-23T09:59:58;33.90;95.00
8338;DHT22;4206;48.634;9.516;2022-07-23T10:02:25;33.10;94.80
8338;DHT22;4206;48.634;9.516;2022-07-23T10:04:54;32.30;97.00
8338;DHT22;4206;48.634;9.516;2022-07-23T10:07:22;32.50;96.50
8338;DHT22;4206;48.634;9.516;2022-07-23T10:09:50;33.00;96.40
8338;DHT22;4206;48.634;9.516;2022-07-23T10:12:18;32.80;96.90
8338;DHT22;4206;48.634;9.516;2022-07-23T10:14:44;33.60;96.70
8338;DHT22;4206;48.634;9.516;2022-07-23T10:17:10;33.90;95.50
8338;DHT22;4206;48.634;9.516;2022-07-23T10:19:36;34.30;95.50
8338;DHT22;4206;48.634;9.516;2022-07-23T10:22:07;35.00;94.40
8338;DHT22;4206;48.634;9.516;2022-07-23T10:36:09;34.50;93.50
8338;DHT22;4206;48.634;9.516;2022-07-23T10:41:36;35.00;94.10
8338;DHT22;4206;48.634;9.516;2022-07-23T10:44:07;35.50;93.00
8338;DHT22;4206;48.634;9.516;2022-07-23T10:46:33;35.70;91.30
8338;DHT22;4206;48.634;9.516;2022-07-23T10:49:26;35.20;93.00
8338;DHT22;4206;48.634;9.516;2022-07-23T10:57:48;33.70;92.50
8338;DHT22;4206;48.634;9.516;2022-07-23T11:00:24;33.60;92.90
8338;DHT22;4206;48.634;9.516;2022-07-23T11:02:52;33.70;93.60
8338;DHT22;4206;48.634;9.516;2022-07-23T11:05:21;34.40;93.20
8338;DHT22;4206;48.634;9.516;2022-07-23T11:16:06;32.50;93.30
8338;DHT22;4206;48.634;9.516;2022-07-23T11:24:13;33.50;93.80
8338;DHT22;4206;48.634;9.516;2022-07-23T11:26:50;34.30;92.70
8338;DHT22;4206;48.634;9.516;2022-07-23T11:32:00;34.80;92.40
8338;DHT22;4206;48.634;9.516;2022-07-23T11:34:42;34.80;90.50
8338;DHT22;4206;48.634;9.516;2022-07-23T11:37:11;35.20;91.00
8338;DHT22;4206;48.634;9.516;2022-07-23T11:39:38;35.50;89.90
8338;DHT22;4206;48.634;9.516;2022-07-23T11:42:05;35.20;90.90
8338;DHT22;4206;48.634;9.516;2022-07-23T11:44:32;35.60;90.20
8338;DHT22;4206;48.634;9.516;2022-07-23T11:47:00;35.70;87.20
8338;DHT22;4206;48.634;9.516;2022-07-23T11:49:27;36.10;88.70
8338;DHT22;4206;48.634;9.516;2022-07-23T11:52:14;36.40;84.70
8338;DHT22;4206;48.634;9.516;2022-07-23T11:57:14;36.20;82.80
8338;DHT22;4206;48.634;9.516;2022-07-23T11:59:40;35.60;87.00
8338;DHT22;4206;48.634;9.516;2022-07-23T12:02:08;35.60;86.10
8338;DHT22;4206;48.634;9.516;2022-07-23T12:04:43;35.20;87.20
8338;DHT22;4206;48.634;9.516;2022-07-23T12:09:51;34.90;87.60
8338;DHT22;4206;48.634;9.516;2022-07-23T12:12:17;34.90;89.20
8338;DHT22;4206;48.634;9.516;2022-07-23T12:17:18;35.50;87.60
8338;DHT22;4206;48.634;9.516;2022-07-23T12:19:44;36.60;86.40
8338;DHT22;4206;48.634;9.516;2022-07-23T12:22:11;36.20;81.70
8338;DHT22;4206;48.634;9.516;2022-07-23T12:24:52;35.40;82.90
8338;DHT22;4206;48.634;9.516;2022-07-23T12:27:21;35.30;87.70
8338;DHT22;4206;48.634;9.516;2022-07-23T12:29:47;36.40;84.60
8338;DHT22;4206;48.634;9.516;2022-07-23T12:32:28;38.30;82.00
8338;DHT22;4206;48.634;9.516;2022-07-23T12:35:05;38.50;80.90
8338;DHT22;4206;48.634;9.516;2022-07-23T12:37:35;38.00;79.70
8338;DHT22;4206;48.634;9.516;2022-07-23T12:42:47;37.40;80.40
8338;DHT22;4206;48.634;9.516;2022-07-23T12:45:13;37.50;80.40
8338;DHT22;4206;48.634;9.516;2022-07-23T12:48:02;37.40;82.50
8338;DHT22;4206;48.634;9.516;2022-07-23T12:50:35;37.40;80.00
8338;DHT22;4206;48.634;9.516;2022-07-23T12:53:04;37.00;79.90
8338;DHT22;4206;48.634;9.516;2022-07-23T12:55:30;38.00;77.60
8338;DHT22;4206;48.634;9.516;2022-07-23T12:58:08;38.40;76.20
8338;DHT22;4206;48.634;9.516;2022-07-23T13:00:53;37.50;76.30
8338;DHT22;4206;48.634;9.516;2022-07-23T13:03:30;38.20;76.70
8338;DHT22;4206;48.634;9.516;2022-07-23T13:05:57;38.20;76.70
8338;DHT22;4206;48.634;9.516;2022-07-23T13:08:23;38.40;74.30
8338;DHT22;4206;48.634;9.516;2022-07-23T13:10:49;38.90;73.90
8338;DHT22;4206;48.634;9.516;2022-07-23T13:13:19;38.80;74.50
8338;DHT22;4206;48.634;9.516;2022-07-23T13:20:37;39.50;96.80
8338;DHT22;4206;48.634;9.516;2022-07-23T13:23:06;39.70;95.20
8338;DHT22;4206;48.634;9.516;2022-07-23T13:25:32;39.00;94.90
8338;DHT22;4206;48.634;9.516;2022-07-23T13:27:58;39.20;94.40
8338;DHT22;4206;48.634;9.516;2022-07-23T13:30:24;39.70;94.00
8338;DHT22;4206;48.634;9.516;2022-07-23T13:32:50;38.90;94.20
8338;DHT22;4206;48.634;9.516;2022-07-23T13:35:15;38.90;94.80
8338;DHT22;4206;48.634;9.516;2022-07-23T13:37:41;38.70;94.30
8338;DHT22;4206;48.634;9.516;2022-07-23T13:40:07;39.10;94.30
8338;DHT22;4206;48.634;9.516;2022-07-23T13:42:36;39.00;94.80
8338;DHT22;4206;48.634;9.516;2022-07-23T13:45:04;38.40;95.20
8338;DHT22;4206;48.634;9.516;2022-07-23T13:47:30;38.30;95.40
8338;DHT22;4206;48.634;9.516;2022-07-23T13:49:58;37.80;96.50
8338;DHT22;4206;48.634;9.516;2022-07-23T13:52:24;37.40;96.10
8338;DHT22;4206;48.634;9.516;2022-07-23T13:54:50;38.00;96.20
8338;DHT22;4206;48.634;9.516;2022-07-23T13:57:16;37.50;97.30
8338;DHT22;4206;48.634;9.516;2022-07-23T13:59:42;36.60;97.20
8338;DHT22;4206;48.634;9.516;2022-07-23T14:02:08;36.50;97.20
8338;DHT22;4206;48.634;9.516;2022-07-23T14:04:35;34.70;99.60
8338;DHT22;4206;48.634;9.516;2022-07-23T14:07:01;34.40;99.80
8338;DHT22;4206;48.634;9.516;2022-07-23T14:09:27;34.40;99.90
8338;DHT22;4206;48.634;9.516;2022-07-23T14:11:53;34.30;99.90
8338;DHT22;4206;48.634;9.516;2022-07-23T14:14:19;34.80;99.90
8338;DHT22;4206;48.634;9.516;2022-07-23T14:16:44;34.70;99.50
8338;DHT22;4206;48.634;9.516;2022-07-23T14:19:11;34.20;99.60
8338;DHT22;4206;48.634;9.516;2022-07-23T14:21:37;34.10;99.20
8338;DHT22;4206;48.634;9.516;2022-07-23T14:24:03;33.50;99.90
8338;DHT22;4206;48.634;9.516;2022-07-23T14:28:55;31.90;99.90
8338;DHT22;4206;48.634;9.516;2022-07-23T14:31:21;32.00;84.00
8338;DHT22;4206;48.634;9.516;2022-07-23T14:33:48;31.60;83.40
8338;DHT22;4206;48.634;9.516;2022-07-23T14:36:13;31.20;86.30
8338;DHT22;4206;48.634;9.516;2022-07-23T14:38:39;31.00;86.40
8338;DHT22;4206;48.634;9.516;2022-07-23T14:41:05;31.20;86.90
8338;DHT22;4206;48.634;9.516;2022-07-23T14:43:33;31.10;86.70
8338;DHT22;4206;48.634;9.516;2022-07-23T14:45:59;30.90;87.80
8338;DHT22;4206;48.634;9.516;2022-07-23T14:48:25;31.00;88.20
8338;DHT22;4206;48.634;9.516;2022-07-23T14:50:50;31.10;88.50
8338;DHT22;4206;48.634;9.516;2022-07-23T14:53:16;30.70;87.50
8338;DHT22;4206;48.634;9.516;2022-07-23T14:55:42;30.70;88.90
8338;DHT22;4206;48.634;9.516;2022-07-23T14:58:07;30.70;90.50
8338;DHT22;4206;48.634;9.516;2022-07-23T15:00:34;30.50;90.50
8338;DHT22;4206;48.634;9.516;2022-07-23T15:03:00;30.20;91.60
8338;DHT22;4206;48.634;9.516;2022-07-23T15:05:26;30.40;90.20
8338;DHT22;4206;48.634;9.516;2022-07-23T15:07:51;30.40;90.70
8338;DHT22;4206;48.634;9.516;2022-07-23T15:10:17;30.40;90.80
8338;DHT22;4206;48.634;9.516;2022-07-23T15:12:43;30.80;90.40
8338;DHT22;4206;48.634;9.516;2022-07-23T15:15:09;31.10;90.30
8338;DHT22;4206;48.634;9.516;2022-07-23T15:17:35;31.50;89.60
8338;DHT22;4206;48.634;9.516;2022-07-23T15:20:00;31.70;88.70
8338;DHT22;4206;48.634;9.516;2022-07-23T15:22:26;31.90;87.40
8338;DHT22;4206;48.634;9.516;2022-07-23T15:24:55;31.70;87.00
8338;DHT22;4206;48.634;9.516;2022-07-23T15:27:20;31.10;85.70
8338;DHT22;4206;48.634;9.516;2022-07-23T15:29:46;31.10;90.10
8338;DHT22;4206;48.634;9.516;2022-07-23T15:32:12;31.30;87.80
8338;DHT22;4206;48.634;9.516;2022-07-23T15:34:38;31.30;86.40
8338;DHT22;4206;48.634;9.516;2022-07-23T15:37:04;30.70;88.10
8338;DHT22;4206;48.634;9.516;2022-07-23T15:39:32;30.40;90.20
8338;DHT22;4206;48.634;9.516;2022-07-23T15:41:59;30.40;90.10
8338;DHT22;4206;48.634;9.516;2022-07-23T15:44:25;30.10;90.70
8338;DHT22;4206;48.634;9.516;2022-07-23T15:46:51;30.00;91.00
8338;DHT22;4206;48.634;9.516;2022-07-23T15:49:16;30.10;90.80
8338;DHT22;4206;48.634;9.516;2022-07-23T15:51:42;30.30;91.10
8338;DHT22;4206;48.634;9.516;2022-07-23T15:54:08;30.30;91.00
8338;DHT22;4206;48.634;9.516;2022-07-23T15:56:34;30.10;91.20
8338;DHT22;4206;48.634;9.516;2022-07-23T15:58:59;30.40;91.60
8338;DHT22;4206;48.634;9.516;2022-07-23T16:01:25;30.40;91.30
8338;DHT22;4206;48.634;9.516;2022-07-23T16:03:54;30.30;89.40
8338;DHT22;4206;48.634;9.516;2022-07-23T16:06:20;30.20;90.90
8338;DHT22;4206;48.634;9.516;2022-07-23T16:08:46;30.00;90.50
8338;DHT22;4206;48.634;9.516;2022-07-23T16:11:13;29.80;91.70
8338;DHT22;4206;48.634;9.516;2022-07-23T16:13:39;29.80;91.50
8338;DHT22;4206;48.634;9.516;2022-07-23T16:16:05;29.90;91.50
8338;DHT22;4206;48.634;9.516;2022-07-23T16:18:31;30.00;91.10
8338;DHT22;4206;48.634;9.516;2022-07-23T16:20:57;30.40;91.00
8338;DHT22;4206;48.634;9.516;2022-07-23T16:23:23;30.60;90.40
8338;DHT22;4206;48.634;9.516;2022-07-23T16:25:49;30.50;89.90
8338;DHT22;4206;48.634;9.516;2022-07-23T16:28:15;30.30;90.50
8338;DHT22;4206;48.634;9.516;2022-07-23T16:30:41;30.20;90.50
8338;DHT22;4206;48.634;9.516;2022-07-23T16:33:06;30.00;90.10
8338;DHT22;4206;48.634;9.516;2022-07-23T16:35:33;29.80;90.90
8338;DHT22;4206;48.634;9.516;2022-07-23T16:37:59;29.50;91.10
8338;DHT22;4206;48.634;9.516;2022-07-23T16:40:27;29.50;91.50
8338;DHT22;4206;48.634;9.516;2022-07-23T16:42:53;29.60;91.80
8338;DHT22;4206;48.634;9.516;2022-07-23T16:45:19;29.90;89.90
8338;DHT22;4206;48.634;9.516;2022-07-23T16:47:47;29.60;91.00
8338;DHT22;4206;48.634;9.516;2022-07-23T16:50:13;29.40;91.80
8338;DHT22;4206;48.634;9.516;2022-07-23T16:52:39;29.20;92.00
8338;DHT22;4206;48.634;9.516;2022-07-23T16:55:05;29.00;92.40
8338;DHT22;4206;48.634;9.516;2022-07-23T16:57:31;28.90;92.50
8338;DHT22;4206;48.634;9.516;2022-07-23T16:59:57;28.90;92.20